Cascade, MT

3:57 PM MDT on September 04, 2015 (GMT -0600)
Craig, Montana | | Change Station
CLOSE
Current Station
Personal Weather Station
Location: Craig, MT
Elevation: 3566 ft
Nearby Weather Stations

Elev 3566 ft 47.13 °N, 111.90 °W | Updated 0 second ago

Overcast
Overcast
53.1 °F
Feels Like 53.1 °F
N
0.5
Wind Variable Wind from North
Gusts 3.1 mph

Today
High -- | Low -- °F
--% Chance of Precip.
Yesterday
High -- | Low -- °F
Precip. -- in
6:50 AM 8:01 PM
Waning Gibbous, 55% visible
Pressure 30.01 in
Visibility 10.0 miles
Clouds Overcast 6000 ft
Dew Point 52 °F
Humidity 98%
Rainfall 0.00 in
Snow Depth Not available.
UV 2 out of 12
Pollen 5.40 out of 12
Air Quality Not available.
Flu Activity Not available.
METAR KHLN 042153Z 32006KT 10SM OVC060 13/07 A2998 RMK AO2 SLP162 T01280067
Pressure 30.01 in
Visibility 10.0 miles
Clouds Overcast 6000 ft
Dew Point 52 °F
Humidity 98%
Rainfall 0.00 in
Snow Depth Not available.
UV 2 out of 12
Pollen 5.40 out of 12
Air Quality Not available.
Flu Activity Not available.
METAR KHLN 042153Z 32006KT 10SM OVC060 13/07 A2998 RMK AO2 SLP162 T01280067

10-Day Weather Forecast

×

Almanac

Astronomy

Sep. 04, 2015 Rise Set
Actual Time
Civil Twilight
Nautical Twilight
Astronomical Twilight
Moon
Length of Visible Light
Length of Day
Tomorrow will be .
, % of the Moon is Illuminated

Today's Extremes

State Highs State Lows

Community

WunderPhotos

Upload Photos

1,852,297 photos uploaded!

WunderBlogs® & News

Nearby

Air Quality

  Air Quality AQ Index Pollutant
Not available.

Snow Depth

Station Depth Elevation

Earthquake Activity

City Distance Mag. Time & Date
Minimum magnitude displayed is 2.5.

Coastal Water Temperatures

Place Temperature

Stations

Nearby Weather Stations

Station Location Temp. Windchill Dew Point Humidity Wind Precip. Elev Updated Type